createdAt,value
2023-05-19T00:00:31.319Z,7.88
2023-05-19T00:05:10.665Z,7.87
2023-05-19T00:09:28.597Z,7.84
2023-05-19T00:13:49.962Z,7.81
2023-05-19T00:18:09.273Z,7.81
2023-05-19T00:22:26.939Z,7.82
2023-05-19T00:26:44.582Z,7.82
2023-05-19T00:31:02.964Z,7.84
2023-05-19T00:35:20.921Z,7.82
2023-05-19T00:39:38.613Z,7.82
2023-05-19T00:43:56.395Z,7.77
2023-05-19T00:48:14.100Z,7.74
2023-05-19T00:52:32.017Z,7.68
2023-05-19T00:56:50.190Z,7.68
2023-05-19T01:01:08.649Z,7.72
2023-05-19T01:05:26.860Z,7.70
2023-05-19T01:09:44.702Z,7.71
2023-05-19T01:14:03.064Z,7.72
2023-05-19T01:18:33.548Z,7.71
2023-05-19T01:23:41.288Z,7.72
2023-05-19T01:28:29.591Z,7.71
2023-05-19T01:32:48.966Z,7.74
2023-05-19T01:37:08.256Z,7.74
2023-05-19T01:41:28.820Z,7.77
2023-05-19T01:45:47.340Z,7.75
2023-05-19T01:50:05.400Z,7.75
2023-05-19T01:54:23.104Z,7.77
2023-05-19T01:58:53.545Z,7.78
2023-05-19T02:03:38.962Z,7.78
2023-05-19T02:08:20.871Z,7.84
2023-05-19T02:12:40.736Z,7.78
2023-05-19T02:16:59.632Z,7.75
2023-05-19T02:21:17.467Z,7.75
2023-05-19T02:25:35.313Z,7.78
2023-05-19T02:29:53.506Z,7.74
2023-05-19T02:34:11.387Z,7.77
2023-05-19T02:38:28.941Z,7.80
2023-05-19T02:42:46.451Z,7.72
2023-05-19T02:47:05.175Z,7.74
2023-05-19T02:51:22.701Z,7.75
2023-05-19T02:55:40.363Z,7.74
2023-05-19T02:59:57.961Z,7.80
2023-05-19T03:04:16.024Z,7.94
2023-05-19T03:08:33.529Z,7.97
2023-05-19T03:12:51.760Z,8.01
2023-05-19T03:17:10.863Z,8.10
2023-05-19T03:21:29.076Z,8.16
2023-05-19T03:25:46.636Z,8.20
2023-05-19T03:30:07.583Z,8.27
2023-05-19T03:34:25.189Z,8.38
2023-05-19T03:38:43.589Z,8.47
2023-05-19T03:43:03.067Z,8.53
2023-05-19T03:47:21.179Z,8.54
2023-05-19T03:51:38.773Z,8.65
2023-05-19T03:55:57.424Z,8.87
2023-05-19T04:00:16.326Z,8.84
2023-05-19T04:04:34.089Z,8.83
2023-05-19T04:08:52.077Z,8.89
2023-05-19T04:13:10.271Z,9.02
2023-05-19T04:17:28.083Z,9.09
2023-05-19T04:21:47.118Z,9.23
2023-05-19T04:26:06.920Z,9.32
2023-05-19T04:30:26.146Z,9.33
2023-05-19T04:34:46.147Z,9.44
2023-05-19T04:39:07.689Z,9.46
2023-05-19T04:43:25.677Z,9.67
2023-05-19T04:47:43.253Z,9.71
2023-05-19T04:52:02.346Z,9.75
2023-05-19T04:56:19.844Z,9.91
2023-05-19T05:00:38.484Z,9.94
2023-05-19T05:04:56.989Z,9.98
2023-05-19T05:09:15.906Z,10.06
2023-05-19T05:13:34.482Z,10.08
2023-05-19T05:17:52.425Z,10.09
2023-05-19T05:22:12.376Z,10.47
2023-05-19T05:26:33.413Z,10.54
2023-05-19T05:30:52.299Z,10.57
2023-05-19T05:35:10.375Z,10.63
2023-05-19T05:39:29.255Z,10.70
2023-05-19T05:43:46.762Z,10.74
2023-05-19T05:48:05.514Z,11.02
2023-05-19T05:52:31.030Z,10.96
2023-05-19T05:56:49.464Z,11.03
2023-05-19T06:01:12.068Z,11.26
2023-05-19T06:05:29.694Z,11.40
2023-05-19T06:09:47.786Z,11.88
2023-05-19T06:14:05.498Z,11.66
2023-05-19T06:18:23.129Z,12.19
2023-05-19T06:22:42.363Z,12.40
2023-05-19T06:27:00.680Z,12.32
2023-05-19T06:31:18.704Z,12.12
2023-05-19T06:35:36.286Z,12.54
2023-05-19T06:39:55.293Z,12.75
2023-05-19T06:44:12.825Z,13.77
2023-05-19T06:48:31.420Z,13.80
2023-05-19T06:52:49.772Z,14.15
2023-05-19T06:57:07.401Z,14.09
2023-05-19T07:01:27.148Z,13.61
2023-05-19T07:05:44.684Z,13.50
2023-05-19T07:10:03.175Z,13.54
2023-05-19T07:14:22.084Z,13.22
2023-05-19T07:18:39.694Z,12.95
2023-05-19T07:22:58.040Z,12.88
2023-05-19T07:27:16.432Z,12.56
2023-05-19T07:31:34.473Z,12.84
2023-05-19T07:35:52.825Z,13.49
2023-05-19T07:40:11.014Z,13.78
2023-05-19T07:44:28.522Z,13.67
2023-05-19T07:48:46.730Z,13.39
2023-05-19T07:53:04.988Z,13.54
2023-05-19T07:57:23.750Z,13.90
2023-05-19T08:01:41.871Z,13.60
2023-05-19T08:05:59.689Z,13.44
2023-05-19T08:10:19.045Z,13.63
2023-05-19T08:14:37.639Z,14.35
2023-05-19T08:18:56.329Z,13.95
2023-05-19T08:23:14.511Z,14.19
2023-05-19T08:27:34.817Z,14.57
2023-05-19T08:31:53.394Z,14.62
2023-05-19T08:36:12.133Z,15.26
2023-05-19T08:40:32.121Z,15.43
2023-05-19T08:44:49.997Z,15.16
2023-05-19T08:49:13.683Z,14.57
2023-05-19T08:53:40.041Z,14.98
2023-05-19T08:57:57.658Z,15.14
2023-05-19T09:02:16.460Z,14.73
2023-05-19T09:06:36.106Z,14.44
2023-05-19T09:10:53.672Z,14.18
2023-05-19T09:15:16.300Z,14.08
2023-05-19T09:19:33.982Z,14.06
2023-05-19T09:23:51.831Z,14.35
2023-05-19T09:28:09.829Z,14.53
2023-05-19T09:32:28.924Z,14.64
2023-05-19T09:36:51.993Z,14.76
2023-05-19T09:41:10.864Z,14.81
2023-05-19T09:45:28.761Z,14.29
2023-05-19T09:49:49.524Z,14.35
2023-05-19T09:54:10.354Z,14.81
2023-05-19T09:58:35.664Z,14.80
2023-05-19T10:02:55.104Z,15.25
2023-05-19T10:07:14.858Z,15.63
2023-05-19T10:11:32.660Z,16.08
2023-05-19T10:15:58.159Z,16.36
2023-05-19T10:20:18.028Z,16.21
2023-05-19T10:24:35.756Z,16.03
2023-05-19T10:28:53.677Z,16.15
2023-05-19T10:33:22.803Z,15.43
2023-05-19T10:38:25.446Z,15.32
2023-05-19T10:42:59.464Z,14.91
2023-05-19T10:47:25.867Z,14.66
2023-05-19T10:51:46.532Z,14.67
2023-05-19T10:56:04.484Z,14.88
2023-05-19T11:00:32.732Z,15.63
2023-05-19T11:04:52.164Z,16.00
2023-05-19T11:09:13.860Z,15.81
2023-05-19T11:13:32.288Z,16.35
2023-05-19T11:17:51.962Z,16.69
2023-05-19T11:22:14.437Z,16.76
2023-05-19T11:26:43.438Z,16.35
2023-05-19T11:31:02.946Z,16.60
2023-05-19T11:35:21.622Z,16.70
2023-05-19T11:39:41.249Z,16.50
2023-05-19T11:43:58.872Z,16.24
2023-05-19T11:48:17.632Z,16.38
2023-05-19T11:52:35.752Z,16.28
2023-05-19T11:56:53.554Z,16.28
2023-05-19T12:01:11.486Z,16.08
2023-05-19T12:05:30.301Z,16.03
2023-05-19T12:09:48.630Z,16.21
2023-05-19T12:14:07.323Z,15.50
2023-05-19T12:18:31.774Z,15.60
2023-05-19T12:22:49.922Z,15.81
2023-05-19T12:27:20.998Z,15.63
2023-05-19T12:31:39.842Z,15.70
2023-05-19T12:35:57.925Z,15.98
2023-05-19T12:40:16.955Z,16.00
2023-05-19T12:44:50.848Z,16.08
2023-05-19T12:49:09.534Z,16.46
2023-05-19T12:53:29.812Z,16.79
2023-05-19T12:57:55.010Z,16.18
2023-05-19T13:02:14.532Z,15.87
2023-05-19T13:06:33.303Z,15.39
2023-05-19T13:10:51.273Z,15.25
2023-05-19T13:15:09.740Z,15.38
2023-05-19T13:19:29.510Z,16.45
2023-05-19T13:23:47.816Z,16.48
2023-05-19T13:28:07.453Z,16.14
2023-05-19T13:32:25.057Z,15.94
2023-05-19T13:36:49.125Z,16.61
2023-05-19T13:41:10.675Z,16.52
2023-05-19T13:45:28.919Z,16.12
2023-05-19T13:49:47.181Z,16.17
2023-05-19T13:54:06.302Z,15.85
2023-05-19T13:58:24.650Z,15.26
2023-05-19T14:02:43.070Z,15.20
2023-05-19T14:07:00.927Z,15.09
2023-05-19T14:11:23.282Z,15.23
2023-05-19T14:15:40.940Z,15.28
2023-05-19T14:20:00.837Z,15.31
2023-05-19T14:24:18.531Z,14.85
2023-05-19T14:28:36.650Z,14.52
2023-05-19T14:32:54.123Z,14.11
2023-05-19T14:37:12.849Z,14.06
2023-05-19T14:41:30.402Z,14.02
2023-05-19T14:45:49.595Z,13.85
2023-05-19T14:50:08.214Z,13.87
2023-05-19T14:54:25.948Z,13.81
2023-05-19T14:58:44.679Z,13.77
2023-05-19T15:03:02.730Z,13.81
2023-05-19T15:07:21.841Z,13.83
2023-05-19T15:11:40.091Z,13.64
2023-05-19T15:16:12.327Z,13.90
2023-05-19T15:20:38.557Z,14.36
2023-05-19T15:24:56.844Z,14.11
2023-05-19T15:29:14.485Z,14.06
2023-05-19T15:33:32.643Z,14.08
2023-05-19T15:37:51.047Z,13.68
2023-05-19T15:42:08.624Z,13.76
2023-05-19T15:46:26.671Z,13.59
2023-05-19T15:50:44.359Z,13.38
2023-05-19T15:55:02.023Z,13.05
2023-05-19T15:59:23.665Z,13.08
2023-05-19T16:03:41.289Z,13.05
2023-05-19T16:07:59.771Z,13.00
2023-05-19T16:12:17.315Z,13.02
2023-05-19T16:16:35.795Z,12.81
2023-05-19T16:20:55.852Z,12.70
2023-05-19T16:25:14.743Z,12.54
2023-05-19T16:29:32.777Z,12.52
2023-05-19T16:33:50.755Z,12.65
2023-05-19T16:38:08.331Z,12.61
2023-05-19T16:42:26.772Z,12.44
2023-05-19T16:46:44.464Z,12.35
2023-05-19T16:51:03.252Z,12.24
2023-05-19T16:55:21.192Z,12.15
2023-05-19T16:59:43.435Z,12.18
2023-05-19T17:04:01.039Z,12.02
2023-05-19T17:08:19.773Z,12.01
2023-05-19T17:12:37.796Z,12.01
2023-05-19T17:16:56.322Z,11.91
2023-05-19T17:21:14.271Z,11.82
2023-05-19T17:25:35.519Z,11.82
2023-05-19T17:29:53.168Z,11.78
2023-05-19T17:34:10.895Z,11.70
2023-05-19T17:38:29.987Z,11.64
2023-05-19T17:42:48.088Z,11.66
2023-05-19T17:47:08.347Z,11.63
2023-05-19T17:51:27.149Z,11.64
2023-05-19T17:55:51.931Z,11.59
2023-05-19T18:00:12.407Z,11.50
2023-05-19T18:04:31.362Z,11.44
2023-05-19T18:08:52.188Z,11.39
2023-05-19T18:13:14.188Z,11.39
2023-05-19T18:17:31.936Z,11.36
2023-05-19T18:21:52.417Z,11.36
2023-05-19T18:26:14.704Z,11.33
2023-05-19T18:30:32.495Z,11.35
2023-05-19T18:34:50.848Z,11.27
2023-05-19T18:39:08.295Z,11.22
2023-05-19T18:43:26.843Z,11.20
2023-05-19T18:47:44.491Z,11.22
2023-05-19T18:52:02.343Z,11.18
2023-05-19T18:56:26.332Z,11.13
2023-05-19T19:00:44.183Z,11.13
2023-05-19T19:05:04.214Z,11.15
2023-05-19T19:09:22.013Z,11.12
2023-05-19T19:13:40.275Z,11.08
2023-05-19T19:17:57.875Z,11.08
2023-05-19T19:22:17.108Z,11.09
2023-05-19T19:26:34.858Z,11.09
2023-05-19T19:30:58.948Z,11.08
2023-05-19T19:35:16.847Z,11.03
2023-05-19T19:39:36.563Z,11.02
2023-05-19T19:43:54.109Z,11.01
2023-05-19T19:48:12.721Z,10.98
2023-05-19T19:52:30.669Z,10.94
2023-05-19T19:56:48.879Z,10.91
2023-05-19T20:01:09.303Z,10.92
2023-05-19T20:05:28.271Z,10.95
2023-05-19T20:09:47.856Z,10.95
2023-05-19T20:14:05.992Z,10.95
2023-05-19T20:18:27.876Z,10.91
2023-05-19T20:22:46.621Z,10.88
2023-05-19T20:27:04.683Z,10.87
2023-05-19T20:31:24.125Z,10.87
2023-05-19T20:35:41.828Z,10.87
2023-05-19T20:39:59.999Z,10.85
2023-05-19T20:44:17.581Z,10.81
2023-05-19T20:48:35.792Z,10.78
2023-05-19T20:52:53.327Z,10.80
2023-05-19T20:57:15.084Z,10.80
2023-05-19T21:01:32.726Z,10.78
2023-05-19T21:05:51.354Z,10.74
2023-05-19T21:10:10.155Z,10.75
2023-05-19T21:14:27.761Z,10.78
2023-05-19T21:18:45.930Z,10.74
2023-05-19T21:23:04.893Z,10.71
2023-05-19T21:27:24.867Z,10.64
2023-05-19T21:31:42.565Z,10.64
2023-05-19T21:36:00.647Z,10.60
2023-05-19T21:40:19.098Z,10.60
2023-05-19T21:44:37.396Z,10.57
2023-05-19T21:48:55.110Z,10.56
2023-05-19T21:53:13.186Z,10.56
2023-05-19T21:57:32.234Z,10.53
2023-05-19T22:01:50.842Z,10.56
2023-05-19T22:06:08.493Z,10.53
2023-05-19T22:10:27.599Z,10.51
2023-05-19T22:14:45.945Z,10.51
2023-05-19T22:19:04.827Z,10.50
2023-05-19T22:23:22.970Z,10.57
2023-05-19T22:27:40.538Z,10.56
2023-05-19T22:31:58.764Z,10.56
2023-05-19T22:36:16.664Z,10.54
2023-05-19T22:40:35.642Z,10.50
2023-05-19T22:44:53.514Z,10.54
2023-05-19T22:49:11.826Z,10.51
2023-05-19T22:53:29.370Z,10.54
2023-05-19T22:57:47.283Z,10.51
2023-05-19T23:02:06.201Z,10.54
2023-05-19T23:06:24.128Z,10.56
2023-05-19T23:10:41.622Z,10.56
2023-05-19T23:15:00.423Z,10.53
2023-05-19T23:19:18.676Z,10.57
2023-05-19T23:23:37.071Z,10.57
2023-05-19T23:27:55.846Z,10.56
2023-05-19T23:32:13.394Z,10.59
2023-05-19T23:36:31.913Z,10.57
2023-05-19T23:40:49.482Z,10.56
2023-05-19T23:45:08.677Z,10.56
2023-05-19T23:49:26.372Z,10.51
2023-05-19T23:53:44.134Z,10.54
2023-05-19T23:58:02.327Z,10.54
